Time;durP1;ratioP1;P1;durP2;ratioP2;P2;SDS_P1;SDS_P2;PMS_P1;PMS_P2;Temp;Humidity;BMP_temperature;BMP_pressure;BME280_temperature;BME280_humidity;BME280_pressure;Samples;Min_cycle;Max_cycle;Signal;HPM_P1;HPM_P2
2021/12/03 00:01:25;;;;;;;72.72;33.08;;;;;;;0.76;100.00;98035.91;1679252;84;21473;-73
2021/12/03 00:03:51;;;;;;;74.85;33.83;;;;;;;0.76;100.00;98032.40;1679205;84;21025;-76
2021/12/03 00:06:18;;;;;;;69.22;31.65;;;;;;;0.79;100.00;98037.22;1680172;84;21198;-74
2021/12/03 00:08:45;;;;;;;62.43;28.55;;;;;;;0.81;100.00;98029.64;1658174;85;21149;-74
2021/12/03 00:11:13;;;;;;;54.27;25.60;;;;;;;0.83;100.00;98035.55;1677581;83;21527;-74
2021/12/03 00:13:40;;;;;;;49.10;24.90;;;;;;;0.85;100.00;98040.13;1678386;83;21016;-75
2021/12/03 00:16:07;;;;;;;50.73;25.05;;;;;;;0.86;100.00;98035.78;1678810;84;21663;-74
2021/12/03 00:18:34;;;;;;;48.60;23.83;;;;;;;0.89;100.00;98033.05;1681352;84;21661;-73
2021/12/03 00:21:03;;;;;;;66.05;26.30;;;;;;;0.93;100.00;98027.33;1681177;84;21116;-74
2021/12/03 00:23:30;;;;;;;51.80;25.25;;;;;;;0.96;100.00;98026.75;1677895;84;21100;-74
2021/12/03 00:26:00;;;;;;;50.05;23.90;;;;;;;1.00;100.00;98023.72;1676438;84;21539;-74
2021/12/03 00:28:28;;;;;;;44.13;21.20;;;;;;;1.04;100.00;98019.34;1679222;84;21041;-76
2021/12/03 00:30:55;;;;;;;39.25;20.88;;;;;;;1.08;100.00;98012.81;1679674;84;21096;-74
2021/12/03 00:33:22;;;;;;;42.33;20.02;;;;;;;1.10;100.00;98006.57;1678055;84;21524;-73
2021/12/03 00:35:48;;;;;;;41.33;20.65;;;;;;;1.11;100.00;98007.62;1681520;84;21504;-74
2021/12/03 00:38:16;;;;;;;35.65;18.30;;;;;;;1.10;100.00;98000.61;1679583;84;20957;-74
2021/12/03 00:40:42;;;;;;;37.80;19.35;;;;;;;1.08;100.00;97996.05;1681668;84;21036;-74
2021/12/03 00:43:09;;;;;;;34.35;17.50;;;;;;;1.08;100.00;97997.41;1681949;84;20916;-74
2021/12/03 00:45:36;;;;;;;35.08;18.57;;;;;;;1.09;100.00;98002.26;1678998;84;21103;-74
2021/12/03 00:48:03;;;;;;;32.13;17.48;;;;;;;1.08;100.00;98002.80;1679622;84;20909;-74
2021/12/03 00:50:31;;;;;;;37.28;19.17;;;;;;;1.09;100.00;97999.55;1680922;84;21089;-73
2021/12/03 00:52:57;;;;;;;39.15;18.65;;;;;;;1.09;100.00;97996.86;1678132;84;21555;-73
2021/12/03 00:55:25;;;;;;;33.67;18.20;;;;;;;1.08;100.00;97992.55;1682891;84;20972;-73
2021/12/03 00:57:51;;;;;;;33.15;18.07;;;;;;;1.08;100.00;97997.41;1678048;84;21540;-73
2021/12/03 01:00:25;;;;;;;38.55;18.27;;;;;;;1.07;100.00;97991.73;1681429;84;20936;-74
2021/12/03 01:02:53;;;;;;;35.20;18.67;;;;;;;1.08;100.00;97993.89;1682246;84;21044;-71
2021/12/03 01:05:20;;;;;;;34.40;17.70;;;;;;;1.07;100.00;97986.88;1681092;84;20970;-74
2021/12/03 01:07:47;;;;;;;37.88;17.87;;;;;;;1.06;100.00;97977.17;1661915;84;21183;-73
2021/12/03 01:10:15;;;;;;;33.35;16.75;;;;;;;1.03;100.00;97981.25;1682301;84;21605;-73
2021/12/03 01:12:42;;;;;;;31.37;17.23;;;;;;;1.01;100.00;97985.34;1684753;84;20958;-73
2021/12/03 01:15:11;;;;;;;35.92;17.95;;;;;;;0.97;100.00;97984.58;1681101;84;20910;-74
2021/12/03 01:17:38;;;;;;;29.23;16.48;;;;;;;0.94;100.00;97977.59;1683702;84;20965;-73
2021/12/03 01:20:09;;;;;;;32.63;17.90;;;;;;;0.93;100.00;97970.58;1678737;84;21405;-74
2021/12/03 01:22:36;;;;;;;33.85;18.02;;;;;;;0.91;100.00;97966.82;1675825;84;21155;-73
2021/12/03 01:25:05;;;;;;;30.85;16.45;;;;;;;0.92;100.00;97968.98;1651444;85;21012;-74
2021/12/03 01:27:32;;;;;;;31.12;17.60;;;;;;;0.92;100.00;97971.68;1649009;86;21454;-74
2021/12/03 01:29:58;;;;;;;37.23;18.65;;;;;;;0.93;100.00;97977.34;1659819;85;20941;-73
2021/12/03 01:32:25;;;;;;;34.88;16.90;;;;;;;0.92;100.00;97980.59;1648309;84;21072;-74
2021/12/03 01:34:51;;;;;;;36.30;18.85;;;;;;;0.94;100.00;97981.10;1649702;85;21100;-74
2021/12/03 01:37:18;;;;;;;39.73;19.45;;;;;;;0.97;100.00;97987.27;1654059;85;21067;-74
2021/12/03 01:39:44;;;;;;;39.63;19.57;;;;;;;0.99;100.00;97994.55;1670136;85;21501;-74
2021/12/03 01:42:11;;;;;;;38.92;18.82;;;;;;;1.01;100.00;98002.36;1659504;85;21532;-73
2021/12/03 01:44:37;;;;;;;37.88;20.65;;;;;;;1.01;100.00;98000.20;1652083;85;21464;-74
2021/12/03 01:47:04;;;;;;;37.88;19.77;;;;;;;0.99;100.00;97995.89;1662128;85;21420;-74
2021/12/03 01:49:31;;;;;;;33.38;17.85;;;;;;;0.97;100.00;97997.28;1649712;85;21017;-74
2021/12/03 01:51:57;;;;;;;33.80;18.67;;;;;;;0.94;100.00;97993.80;1658194;85;20989;-74
2021/12/03 01:54:23;;;;;;;33.95;18.70;;;;;;;0.88;100.00;97995.77;1657475;85;20992;-74
2021/12/03 01:56:50;;;;;;;34.40;18.85;;;;;;;0.79;100.00;97996.16;1654967;85;20981;-74
2021/12/03 01:59:16;;;;;;;38.02;18.55;;;;;;;0.66;100.00;97988.21;1666251;85;21223;-74
2021/12/03 02:01:43;;;;;;;35.38;19.23;;;;;;;0.56;100.00;97978.11;1650860;85;21068;-76
2021/12/03 02:04:09;;;;;;;39.38;18.67;;;;;;;0.44;100.00;97974.47;1662193;85;20929;-73
2021/12/03 02:06:37;;;;;;;31.00;18.17;;;;;;;0.38;100.00;97965.36;1655473;85;21033;-73
2021/12/03 02:09:05;;;;;;;33.08;18.57;;;;;;;0.36;100.00;97969.70;1648340;85;20977;-73
2021/12/03 02:11:32;;;;;;;38.02;19.70;;;;;;;0.38;100.00;97966.16;1648830;85;21156;-74
2021/12/03 02:13:58;;;;;;;34.85;18.50;;;;;;;0.40;100.00;97966.69;1655903;85;21017;-73
2021/12/03 02:16:25;;;;;;;38.17;19.82;;;;;;;0.41;100.00;97969.64;1655221;84;20993;-73
2021/12/03 02:18:52;;;;;;;33.98;19.02;;;;;;;0.43;100.00;97964.76;1663391;85;21056;-73
2021/12/03 02:21:19;;;;;;;35.52;18.55;;;;;;;0.47;100.00;97963.64;1660145;84;20986;-75
2021/12/03 02:23:46;;;;;;;38.65;20.30;;;;;;;0.48;100.00;97966.05;1651393;85;21132;-74
2021/12/03 02:26:13;;;;;;;39.20;20.35;;;;;;;0.48;100.00;97955.80;1651194;85;20950;-77
2021/12/03 02:28:43;;;;;;;38.48;19.40;;;;;;;0.47;100.00;97960.39;1679640;84;21182;-78
2021/12/03 02:31:11;;;;;;;45.25;20.90;;;;;;;0.46;100.00;97954.73;1671707;84;21516;-74
2021/12/03 02:33:38;;;;;;;42.62;21.25;;;;;;;0.46;100.00;97957.98;1675863;84;21607;-72
2021/12/03 02:36:05;;;;;;;37.15;20.90;;;;;;;0.44;100.00;97958.27;1681256;84;21503;-73
2021/12/03 02:38:31;;;;;;;37.95;20.32;;;;;;;0.43;100.00;97952.61;1681127;84;20969;-71
2021/12/03 02:40:58;;;;;;;32.35;18.95;;;;;;;0.42;100.00;97940.20;1674095;84;20942;-73
2021/12/03 02:43:25;;;;;;;35.52;17.92;;;;;;;0.38;100.00;97935.13;1680679;84;21029;-73
2021/12/03 02:45:51;;;;;;;37.65;19.60;;;;;;;0.33;100.00;97927.09;1672073;84;21016;-73
2021/12/03 02:48:20;;;;;;;39.53;18.87;;;;;;;0.32;100.00;97926.83;1682199;84;21121;-73
2021/12/03 02:50:47;;;;;;;36.13;18.82;;;;;;;0.30;100.00;97922.27;1680281;84;20956;-73
2021/12/03 02:53:14;;;;;;;37.13;20.55;;;;;;;0.27;100.00;97919.59;1660515;85;20951;-73
2021/12/03 02:55:40;;;;;;;41.92;20.88;;;;;;;0.28;100.00;97923.09;1644451;86;20880;-73
2021/12/03 02:58:09;;;;;;;41.30;20.82;;;;;;;0.28;100.00;97928.49;1680624;84;21301;-73
2021/12/03 03:00:36;;;;;;;40.25;20.35;;;;;;;0.29;100.00;97913.91;1679335;84;21148;-73
2021/12/03 03:03:03;;;;;;;41.80;22.60;;;;;;;0.29;100.00;97904.46;1680126;84;21049;-73
2021/12/03 03:05:30;;;;;;;40.85;21.87;;;;;;;0.27;100.00;97903.95;1675675;84;20920;-73
2021/12/03 03:07:56;;;;;;;46.80;23.50;;;;;;;0.28;100.00;97908.25;1677582;84;20981;-73
2021/12/03 03:10:28;;;;;;;42.65;23.42;;;;;;;0.29;100.00;97899.06;1681409;84;21465;-73
2021/12/03 03:12:55;;;;;;;42.33;21.80;;;;;;;0.30;100.00;97888.52;1678132;84;21489;-72
2021/12/03 03:15:21;;;;;;;41.88;20.40;;;;;;;0.29;100.00;97880.97;1680235;84;21671;-72
2021/12/03 03:17:48;;;;;;;37.23;19.30;;;;;;;0.29;100.00;97880.97;1677313;84;21428;-72
2021/12/03 03:20:14;;;;;;;38.53;21.73;;;;;;;0.29;100.00;97881.52;1679791;84;21005;-73
2021/12/03 03:22:41;;;;;;;43.45;20.27;;;;;;;0.29;100.00;97876.12;1679071;84;21100;-73
2021/12/03 03:25:12;;;;;;;39.83;20.52;;;;;;;0.29;100.00;97887.72;1679487;84;21156;-73
2021/12/03 03:27:39;;;;;;;37.40;19.82;;;;;;;0.27;100.00;97890.45;1679946;84;21108;-73
2021/12/03 03:30:08;;;;;;;41.00;19.60;;;;;;;0.27;100.00;97885.05;1678465;84;21532;-74
2021/12/03 03:32:36;;;;;;;37.60;19.62;;;;;;;0.27;100.00;97883.70;1680023;84;21084;-76
2021/12/03 03:35:04;;;;;;;32.33;17.52;;;;;;;0.25;100.00;97878.59;1662401;85;21537;-74
2021/12/03 03:37:30;;;;;;;33.92;18.73;;;;;;;0.20;100.00;97870.56;1683423;84;21097;-74
2021/12/03 03:39:57;;;;;;;33.63;18.65;;;;;;;0.16;100.00;97859.28;1679842;84;20990;-74
2021/12/03 03:42:23;;;;;;;33.70;18.07;;;;;;;0.14;100.00;97853.37;1681045;84;20925;-73
2021/12/03 03:44:50;;;;;;;36.03;18.90;;;;;;;0.12;100.00;97851.50;1677967;84;21029;-72
2021/12/03 03:47:16;;;;;;;33.78;19.90;;;;;;;0.12;100.00;97852.86;1681869;84;21009;-72
2021/12/03 03:49:45;;;;;;;34.40;18.45;;;;;;;0.13;100.00;97847.72;1674195;84;39216;-72
2021/12/03 03:52:12;;;;;;;31.45;17.77;;;;;;;0.13;100.00;97852.56;1677242;84;20897;-74
2021/12/03 03:54:38;;;;;;;33.70;18.00;;;;;;;0.15;100.00;97852.28;1664662;84;20896;-74
2021/12/03 03:57:05;;;;;;;37.80;20.80;;;;;;;0.19;100.00;97849.27;1680956;84;20941;-74
2021/12/03 03:59:31;;;;;;;46.88;24.40;;;;;;;0.22;100.00;97851.37;1681599;84;20962;-73
2021/12/03 04:01:58;;;;;;;36.83;19.82;;;;;;;0.27;100.00;97848.61;1673371;84;21087;-74
2021/12/03 04:04:25;;;;;;;45.58;22.82;;;;;;;0.30;100.00;97845.34;1672035;85;20968;-74
2021/12/03 04:06:52;;;;;;;41.08;20.97;;;;;;;0.33;100.00;97852.86;1681981;84;21048;-74
2021/12/03 04:09:19;;;;;;;44.73;23.15;;;;;;;0.33;100.00;97854.20;1684121;84;21015;-73
2021/12/03 04:11:45;;;;;;;53.80;27.50;;;;;;;0.33;100.00;97861.76;1682686;84;21685;-73
2021/12/03 04:14:12;;;;;;;56.85;31.05;;;;;;;0.33;100.00;97866.35;1680926;84;21500;-73
2021/12/03 04:16:39;;;;;;;50.03;26.82;;;;;;;0.31;100.00;97874.73;1680767;84;20966;-74
2021/12/03 04:19:06;;;;;;;52.80;25.92;;;;;;;0.29;100.00;97865.33;1676562;84;20941;-74
2021/12/03 04:21:32;;;;;;;46.25;23.87;;;;;;;0.28;100.00;97863.17;1675170;84;21004;-73
2021/12/03 04:23:59;;;;;;;52.25;24.02;;;;;;;0.28;100.00;97861.02;1678720;84;21031;-73
2021/12/03 04:26:25;;;;;;;46.63;22.82;;;;;;;0.28;100.00;97866.41;1675267;85;21498;-73
2021/12/03 04:28:52;;;;;;;45.33;22.60;;;;;;;0.28;100.00;97862.37;1678257;84;20897;-73
2021/12/03 04:31:18;;;;;;;37.03;21.27;;;;;;;0.26;100.00;97855.11;1678890;83;21064;-74
2021/12/03 04:33:45;;;;;;;38.75;21.55;;;;;;;0.25;100.00;97851.60;1675860;84;21017;-72
2021/12/03 04:36:12;;;;;;;38.40;20.15;;;;;;;0.25;100.00;97847.55;1680288;84;21108;-72
2021/12/03 04:38:39;;;;;;;37.38;18.30;;;;;;;0.24;100.00;97840.55;1681177;84;21117;-73
2021/12/03 04:41:05;;;;;;;36.23;17.32;;;;;;;0.24;100.00;97834.35;1680622;84;21669;-74
2021/12/03 04:43:32;;;;;;;32.25;17.32;;;;;;;0.24;100.00;97828.95;1677336;84;21085;-76
2021/12/03 04:45:59;;;;;;;33.00;17.00;;;;;;;0.23;100.00;97827.34;1677265;84;21064;-76
2021/12/03 04:48:26;;;;;;;35.58;18.48;;;;;;;0.25;100.00;97819.77;1655243;84;21084;-78
2021/12/03 04:50:52;;;;;;;35.63;18.62;;;;;;;0.25;100.00;97816.52;1681001;84;21510;-77
2021/12/03 04:53:19;;;;;;;34.53;18.30;;;;;;;0.28;100.00;97810.54;1678400;84;20954;-78
2021/12/03 04:55:47;;;;;;;33.05;17.90;;;;;;;0.32;100.00;97815.61;1676639;84;21010;-78
2021/12/03 04:58:13;;;;;;;29.02;16.20;;;;;;;0.36;100.00;97804.23;1679819;84;21545;-79
2021/12/03 05:00:55;;;;;;;29.65;16.42;;;;;;;0.41;100.00;97787.42;1681697;84;21408;-77
2021/12/03 05:03:24;;;;;;;30.05;16.55;;;;;;;0.44;100.00;97787.38;1677270;84;21146;-76
2021/12/03 05:06:02;;;;;;;27.42;16.05;;;;;;;0.45;100.00;97781.69;1681189;84;21461;-78
2021/12/03 05:08:21;;;;;;;29.70;17.27;;;;;;;0.46;100.00;97783.84;1670842;84;20969;-78
2021/12/03 05:10:48;;;;;;;38.85;18.32;;;;;;;0.46;100.00;97783.84;1660145;84;20968;-76
2021/12/03 05:13:17;;;;;;;31.70;16.52;;;;;;;0.43;100.00;97789.28;1652017;85;20937;-74
2021/12/03 05:15:45;;;;;;;35.73;17.17;;;;;;;0.39;100.00;97784.21;1650654;85;21823;-74
2021/12/03 05:18:15;;;;;;;29.75;16.32;;;;;;;0.35;100.00;97781.84;1651422;85;21488;-73
2021/12/03 05:20:42;;;;;;;33.53;18.07;;;;;;;0.32;100.00;97780.52;1650014;85;21186;-73
2021/12/03 05:23:09;;;;;;;32.17;17.50;;;;;;;0.30;100.00;97781.91;1652643;85;21000;-73
2021/12/03 05:25:36;;;;;;;37.30;19.75;;;;;;;0.29;100.00;97786.50;1650841;85;21072;-75
2021/12/03 05:28:03;;;;;;;33.95;18.75;;;;;;;0.31;100.00;97781.62;1655506;86;21116;-76
2021/12/03 05:30:29;;;;;;;33.65;18.87;;;;;;;0.31;100.00;97770.02;1648952;85;21111;-79
2021/12/03 05:32:56;;;;;;;38.50;19.85;;;;;;;0.29;100.00;97758.16;1650583;85;21524;-75
2021/12/03 05:35:23;;;;;;;42.43;21.45;;;;;;;0.30;100.00;97754.92;1637395;86;21050;-77
2021/12/03 05:37:49;;;;;;;39.70;19.07;;;;;;;0.30;100.00;97750.88;1649784;85;21183;-76
2021/12/03 05:40:16;;;;;;;36.50;18.95;;;;;;;0.28;100.00;97760.61;1653671;86;21494;-75
2021/12/03 05:42:45;;;;;;;29.50;17.07;;;;;;;0.28;100.00;97767.91;1653107;86;21012;-75
2021/12/03 05:45:15;;;;;;;32.93;17.55;;;;;;;0.27;100.00;97767.65;1650266;85;21076;-76
2021/12/03 05:47:42;;;;;;;35.85;17.45;;;;;;;0.25;100.00;97768.48;1650882;85;21057;-74
2021/12/03 05:50:10;;;;;;;31.10;17.50;;;;;;;0.26;100.00;97785.73;1649125;85;21484;-76
2021/12/03 05:52:36;;;;;;;32.40;18.27;;;;;;;0.28;100.00;97793.55;1648966;86;21122;-76
2021/12/03 05:55:05;;;;;;;35.52;18.92;;;;;;;0.31;100.00;97800.52;1651689;85;20988;-77
2021/12/03 05:57:31;;;;;;;34.67;17.77;;;;;;;0.33;100.00;97813.72;1649756;85;21166;-75
2021/12/03 05:59:58;;;;;;;37.55;19.05;;;;;;;0.37;100.00;97829.59;1651476;85;21112;-75
2021/12/03 06:02:24;;;;;;;39.48;19.52;;;;;;;0.40;100.00;97827.66;1652182;85;21072;-74
2021/12/03 06:04:51;;;;;;;37.08;19.40;;;;;;;0.44;100.00;97832.73;1651371;86;21473;-75
2021/12/03 06:07:17;;;;;;;36.42;18.32;;;;;;;0.48;100.00;97837.80;1651257;86;21166;-75
2021/12/03 06:09:45;;;;;;;37.55;19.05;;;;;;;0.55;100.00;97836.09;1674777;84;21088;-77
2021/12/03 06:12:12;;;;;;;43.00;21.68;;;;;;;0.60;100.00;97842.19;1680824;84;21072;-77
2021/12/03 06:14:38;;;;;;;38.65;20.15;;;;;;;0.66;100.00;97845.63;1678440;84;21666;-77
2021/12/03 06:17:05;;;;;;;35.10;20.40;;;;;;;0.71;100.00;97850.95;1678472;84;21474;-80
2021/12/03 06:19:31;;;;;;;41.65;20.27;;;;;;;0.74;100.00;97850.91;1680104;84;21180;-84
2021/12/03 06:21:58;;;;;;;37.05;20.08;;;;;;;0.74;100.00;97850.36;1680319;84;21076;-81
2021/12/03 06:24:24;;;;;;;38.33;20.02;;;;;;;0.77;100.00;97863.28;1675728;84;21035;-81
2021/12/03 06:26:51;;;;;;;36.25;19.73;;;;;;;0.82;100.00;97867.81;1677905;84;21100;-81
2021/12/03 06:29:18;;;;;;;40.23;22.73;;;;;;;0.86;100.00;97879.64;1673851;85;21604;-81
2021/12/03 06:31:44;;;;;;;48.05;24.25;;;;;;;0.93;100.00;97889.53;1678420;84;21509;-80
2021/12/03 06:34:11;;;;;;;41.88;23.25;;;;;;;1.06;100.00;97894.74;1677585;84;20949;-80
2021/12/03 06:36:37;;;;;;;52.40;25.40;;;;;;;1.16;100.00;97885.09;1675044;84;20989;-78
2021/12/03 06:39:04;;;;;;;44.83;27.77;;;;;;;1.22;100.00;97887.42;1676142;84;20958;-78
2021/12/03 06:41:31;;;;;;;43.78;26.17;;;;;;;1.27;100.00;97887.89;1680069;84;21136;-75
2021/12/03 06:43:57;;;;;;;44.45;25.12;;;;;;;1.30;100.00;97887.30;1676735;84;20889;-75
2021/12/03 06:46:24;;;;;;;38.13;21.30;;;;;;;1.33;100.00;97884.81;1681724;85;21041;-75
2021/12/03 06:48:50;;;;;;;35.63;20.95;;;;;;;1.36;100.00;97888.83;1680399;84;20952;-75
2021/12/03 06:51:17;;;;;;;34.20;19.32;;;;;;;1.38;100.00;97887.17;1678868;84;20953;-75
2021/12/03 06:53:57;;;;;;;32.20;19.75;;;;;;;1.41;100.00;97894.70;1677659;84;22139;-77
2021/12/03 06:56:21;;;;;;;34.48;22.10;;;;;;;1.44;100.00;97903.57;1677001;84;21120;-74
2021/12/03 06:58:49;;;;;;;43.35;21.77;;;;;;;1.47;100.00;97912.44;1679132;84;21072;-73
2021/12/03 07:01:16;;;;;;;45.83;23.52;;;;;;;1.49;100.00;97902.13;1681603;84;21001;-74
2021/12/03 07:03:42;;;;;;;38.95;21.62;;;;;;;1.50;100.00;97896.42;1678880;84;21345;-81
2021/12/03 07:06:09;;;;;;;42.17;20.37;;;;;;;1.51;100.00;97883.16;1679835;82;21194;-79
2021/12/03 07:08:35;;;;;;;38.33;20.25;;;;;;;1.52;100.00;97901.54;1685534;82;21476;-75
2021/12/03 07:11:02;;;;;;;30.92;17.80;;;;;;;1.53;100.00;97905.84;1682934;84;22060;-71
2021/12/03 07:13:31;;;;;;;32.08;18.05;;;;;;;1.54;100.00;97914.22;1679224;84;20950;-77
2021/12/03 07:15:59;;;;;;;31.02;16.60;;;;;;;1.55;100.00;97917.98;1676935;84;21033;-73
2021/12/03 07:18:25;;;;;;;46.80;21.85;;;;;;;1.56;100.00;97912.02;1676704;84;21135;-74
2021/12/03 07:20:52;;;;;;;34.80;20.52;;;;;;;1.56;100.00;97911.47;1678996;84;20973;-73
2021/12/03 07:23:21;;;;;;;42.15;20.37;;;;;;;1.57;100.00;97914.42;1675835;84;20942;-71
2021/12/03 07:25:53;;;;;;;34.58;19.17;;;;;;;1.57;100.00;97904.96;1677332;84;20942;-74
2021/12/03 07:28:19;;;;;;;35.65;18.73;;;;;;;1.58;100.00;97904.41;1683576;83;20890;-75
2021/12/03 07:30:47;;;;;;;31.48;17.70;;;;;;;1.61;100.00;97907.88;1665874;84;21610;-76
2021/12/03 07:33:21;;;;;;;29.52;16.23;;;;;;;1.62;100.00;97904.87;1658400;85;21888;-75
2021/12/03 07:35:54;;;;;;;30.02;14.83;;;;;;;1.63;100.00;97907.03;1672940;84;21117;-72
2021/12/03 07:38:28;;;;;;;27.27;17.07;;;;;;;1.67;100.00;97913.45;1663622;84;21529;-73
2021/12/03 07:40:56;;;;;;;35.50;20.43;;;;;;;1.73;100.00;97907.41;1679689;84;21155;-71
2021/12/03 07:43:30;;;;;;;33.45;17.10;;;;;;;1.78;100.00;97912.70;1677721;84;22125;-70
2021/12/03 07:45:58;;;;;;;29.32;16.60;;;;;;;1.84;100.00;97907.44;1679926;84;21048;-73
2021/12/03 07:48:27;;;;;;;26.12;14.80;;;;;;;1.93;100.00;97908.36;1679752;84;20920;-79
2021/12/03 07:50:56;;;;;;;27.55;15.83;;;;;;;2.01;100.00;97910.92;1679244;84;21052;-75
2021/12/03 07:53:28;;;;;;;28.70;15.43;;;;;;;2.05;100.00;97907.32;1680126;84;21478;-75
2021/12/03 07:56:01;;;;;;;38.78;20.52;;;;;;;2.14;100.00;97912.29;1663967;84;21697;-79
2021/12/03 07:58:34;;;;;;;39.35;18.15;;;;;;;2.20;100.00;97906.22;1659642;85;21069;-75
2021/12/03 08:01:04;;;;;;;31.90;18.23;;;;;;;2.27;100.00;97891.18;1636540;85;21021;-77
2021/12/03 08:03:40;;;;;;;41.18;20.12;;;;;;;2.30;100.00;97898.70;1654464;85;21516;-76
2021/12/03 08:06:13;;;;;;;32.63;17.85;;;;;;;2.31;100.00;97917.88;1637041;85;21064;-83
2021/12/03 08:08:44;;;;;;;42.73;21.45;;;;;;;2.35;100.00;97941.09;1647108;85;21975;-74
2021/12/03 08:11:14;;;;;;;41.70;19.15;;;;;;;2.47;100.00;97921.08;1656012;85;21020;-72
2021/12/03 08:13:49;;;;;;;24.92;15.03;;;;;;;2.65;100.00;97935.62;1655651;85;20949;-68
2021/12/03 08:16:23;;;;;;;31.57;17.57;;;;;;;2.73;100.00;97923.27;1656434;85;21019;-69
2021/12/03 08:18:55;;;;;;;29.92;15.48;;;;;;;2.81;100.00;97917.12;1677045;84;21095;-69
2021/12/03 08:21:31;;;;;;;31.93;16.12;;;;;;;2.98;100.00;97929.45;1663106;83;20978;-76
2021/12/03 08:24:00;;;;;;;26.00;14.95;;;;;;;3.33;100.00;97937.89;1628330;85;21481;-70
2021/12/03 08:26:30;;;;;;;24.70;14.25;;;;;;;3.79;100.00;97936.99;1642849;85;20974;-69
2021/12/03 08:28:59;;;;;;;34.13;17.37;;;;;;;4.34;100.00;97933.09;1658520;85;21518;-68
2021/12/03 08:31:29;;;;;;;24.00;15.10;;;;;;;4.84;97.26;97909.06;1641971;85;20917;-67
2021/12/03 08:33:58;;;;;;;29.10;16.02;;;;;;;5.05;95.55;97925.56;1658176;85;21210;-72
2021/12/03 08:36:27;;;;;;;23.95;13.88;;;;;;;4.98;92.09;97915.16;1661587;85;21025;-72
2021/12/03 08:38:58;;;;;;;24.40;14.23;;;;;;;4.98;92.09;97915.16;1652986;85;20906;-73
2021/12/03 08:41:28;;;;;;;26.02;13.65;;;;;;;4.73;91.55;97912.64;1642254;86;21011;-69
2021/12/03 08:43:58;;;;;;;28.07;16.35;;;;;;;4.45;91.69;97920.27;1660130;85;21067;-70
2021/12/03 08:46:31;;;;;;;24.00;13.55;;;;;;;4.21;93.09;97941.02;1681340;84;21117;-67
2021/12/03 08:49:05;;;;;;;30.90;16.57;;;;;;;4.10;93.70;97951.11;1678862;85;20910;-72
2021/12/03 08:51:31;;;;;;;35.92;17.25;;;;;;;3.97;94.17;97950.91;1676231;85;20986;-75
2021/12/03 08:56:37;;;;;;;28.02;16.05;;;;;;;3.68;93.53;97947.05;1681721;84;21520;-74
2021/12/03 08:59:04;;;;;;;27.25;15.25;;;;;;;3.52;94.05;97950.70;1674849;84;21926;-75
2021/12/03 09:01:31;;;;;;;26.40;15.05;;;;;;;3.42;94.75;97938.76;1678209;84;21574;-75
2021/12/03 09:03:58;;;;;;;29.48;15.78;;;;;;;3.34;95.22;97947.08;1678018;84;21051;-76
2021/12/03 09:06:26;;;;;;;27.27;14.73;;;;;;;3.19;95.38;97969.12;1679649;85;21044;-77
2021/12/03 09:08:53;;;;;;;31.52;16.45;;;;;;;3.19;95.38;97969.12;1649586;85;21108;-78
2021/12/03 09:11:20;;;;;;;27.32;16.52;;;;;;;3.05;95.57;97971.86;1627036;86;21547;-77
2021/12/03 09:13:51;;;;;;;26.55;15.68;;;;;;;2.92;95.85;97985.69;1621810;86;21017;-78
2021/12/03 09:16:19;;;;;;;32.45;17.15;;;;;;;2.82;96.20;97981.06;1648482;86;21461;-74
2021/12/03 09:18:46;;;;;;;30.15;16.42;;;;;;;2.74;96.69;97980.42;1671221;83;21026;-71
2021/12/03 09:21:18;;;;;;;29.57;17.27;;;;;;;2.70;97.15;97988.90;1681222;84;21515;-69
2021/12/03 09:23:54;;;;;;;31.82;18.37;;;;;;;2.62;97.38;97993.12;1669192;83;21153;-70
2021/12/03 09:26:13;;;;;;;38.78;19.48;;;;;;;2.53;97.79;97982.18;1667392;84;21011;-70
2021/12/03 09:28:41;;;;;;;38.90;20.48;;;;;;;2.50;98.18;97969.23;1663078;84;21034;-75
2021/12/03 09:31:15;;;;;;;39.70;21.23;;;;;;;2.47;98.70;97964.42;1646918;85;20991;-70
2021/12/03 09:33:41;;;;;;;38.95;21.17;;;;;;;2.45;98.72;97968.53;1648045;85;21424;-70
2021/12/03 09:36:15;;;;;;;43.48;23.07;;;;;;;2.44;98.95;97966.92;1637012;85;21146;-70
2021/12/03 09:38:49;;;;;;;41.77;21.85;;;;;;;2.43;99.20;97967.48;1644179;85;21048;-70
2021/12/03 09:41:17;;;;;;;41.55;22.00;;;;;;;2.44;99.30;97961.52;1645946;85;21076;-71
2021/12/03 09:43:48;;;;;;;41.58;23.22;;;;;;;2.43;99.53;97951.78;1640211;86;21006;-74
2021/12/03 09:46:24;;;;;;;39.10;21.75;;;;;;;2.44;99.79;97943.36;1640730;85;21047;-77
2021/12/03 09:51:49;;;;;;;40.52;21.30;;;;;;;2.45;100.00;97935.48;1658090;83;21462;-73
2021/12/03 09:54:24;;;;;;;29.10;17.07;;;;;;;2.41;100.00;97955.34;1659566;84;20997;-75
2021/12/03 09:56:50;;;;;;;29.07;17.73;;;;;;;2.35;100.00;97958.70;1651241;85;21093;-76
2021/12/03 10:02:16;;;;;;;29.12;16.15;;;;;;;2.29;100.00;97972.92;1658061;85;21158;-73
2021/12/03 10:04:52;;;;;;;23.45;13.40;;;;;;;2.27;100.00;97975.67;1649747;85;21033;-72
2021/12/03 10:15:38;;;;;;;22.00;11.95;;;;;;;2.19;100.00;97998.02;1645202;85;21857;-76
2021/12/03 10:20:42;;;;;;;13.53;9.45;;;;;;;2.11;100.00;98013.59;1659162;85;20957;-72
2021/12/03 10:36:54;;;;;;;11.60;7.60;;;;;;;1.97;100.00;98035.22;1679912;84;21523;-77
2021/12/03 10:39:25;;;;;;;13.60;8.25;;;;;;;1.98;100.00;98047.09;1677439;84;20949;-68
2021/12/03 10:47:21;;;;;;;5.95;3.80;;;;;;;1.94;100.00;98056.91;1678237;84;21539;-66
2021/12/03 10:49:51;;;;;;;7.03;3.42;;;;;;;1.93;100.00;98064.77;1682753;83;21000;-68
2021/12/03 10:55:27;;;;;;;4.37;2.75;;;;;;;1.89;100.00;98068.36;1643319;84;21212;-68
2021/12/03 11:06:33;;;;;;;10.35;5.40;;;;;;;1.77;100.00;98074.22;1676288;83;21571;-68
2021/12/03 11:17:49;;;;;;;3.80;2.10;;;;;;;1.63;100.00;98115.31;1676954;83;20908;-68
2021/12/03 12:10:32;;;;;;;7.72;3.92;;;;;;;1.28;100.00;98175.52;1679137;84;21162;-68
2021/12/03 14:04:51;;;;;;;10.03;5.80;;;;;;;0.14;100.00;98428.16;1672621;83;21012;-69
2021/12/03 14:42:19;;;;;;;15.18;7.87;;;;;;;-0.04;100.00;98481.66;1656776;83;21618;-70
2021/12/03 14:44:40;;;;;;;14.55;7.40;;;;;;;-0.04;100.00;98472.77;1657563;84;21097;-70
2021/12/03 14:57:49;;;;;;;16.60;8.55;;;;;;;-0.04;100.00;98495.16;1653185;86;21596;-69
2021/12/03 15:09:30;;;;;;;25.17;13.22;;;;;;;0.04;100.00;98507.80;1673430;83;20953;-70
2021/12/03 15:19:05;;;;;;;30.75;19.10;;;;;;;-0.02;100.00;98521.32;1671135;84;21122;-70
2021/12/03 15:32:41;;;;;;;25.68;13.45;;;;;;;-0.10;100.00;98543.45;1683970;83;21172;-69
2021/12/03 15:56:23;;;;;;;95.00;36.95;;;;;;;-0.15;100.00;98562.34;1679434;84;21594;-69
2021/12/03 16:06:42;;;;;;;27.00;12.18;;;;;;;-0.11;100.00;98588.23;1681763;84;21013;-70
2021/12/03 16:09:32;;;;;;;38.98;17.85;;;;;;;-0.12;100.00;98602.27;1677448;84;21655;-69
2021/12/03 16:14:54;;;;;;;63.40;25.82;;;;;;;-0.13;100.00;98599.30;1681899;84;20956;-71
2021/12/03 16:22:33;;;;;;;84.28;33.45;;;;;;;-0.16;100.00;98621.41;1679484;84;21020;-80
2021/12/03 16:44:55;;;;;;;25.48;11.73;;;;;;;-0.44;100.00;98662.34;1651162;85;21032;-76
2021/12/03 16:46:47;;;;;;;18.25;10.58;;;;;;;-0.48;100.00;98662.60;1612216;86;21012;-81
2021/12/03 16:51:54;;;;;;;26.75;12.80;;;;;;;-0.53;100.00;98672.02;1675352;84;21167;-70
2021/12/03 16:54:37;;;;;;;26.45;12.93;;;;;;;-0.54;100.00;98665.81;1677601;84;21954;-73
2021/12/03 16:57:01;;;;;;;18.73;10.60;;;;;;;-0.54;100.00;98678.48;1672761;85;21002;-71
2021/12/03 16:59:31;;;;;;;21.30;11.68;;;;;;;-0.56;100.00;98684.69;1673709;84;21169;-73
2021/12/03 17:02:07;;;;;;;23.95;12.25;;;;;;;-0.59;100.00;98684.70;1665030;85;21094;-73
2021/12/03 17:12:47;;;;;;;36.55;17.10;;;;;;;-0.63;100.00;98667.97;1672604;85;21042;-73
2021/12/03 17:21:12;;;;;;;21.73;10.85;;;;;;;-0.61;100.00;98694.94;1675459;85;21064;-70
2021/12/03 17:23:36;;;;;;;24.97;11.60;;;;;;;-0.63;100.00;98698.97;1669967;85;21313;-75
2021/12/03 17:52:32;;;;;;;27.80;13.22;;;;;;;-0.81;100.00;98727.19;1678123;84;21001;-75
2021/12/03 17:57:39;;;;;;;25.40;13.32;;;;;;;-0.83;100.00;98744.96;1676782;84;22150;-70